Ncc Najd — HZAK — position and weather

sailwx.info

Track history (hours):
 
Tides and Currents Weather Stations Pressure Air Temp Water Temp Dewpoint Dewpoint Depression Visibility Wind Speed Wind Dir Waves Ship Positions

Ncc Najd

Last reported at 2015-Jul-27 17:28 UTC. Time now 2015-Aug-02 04:18 UTC.
Position N 26°48' E 051°08'.

Length 183 m; draft 7.8 m.

Type: Tanker. MMSI: 403579000.

Date/timePositionNaut miles runAvg speedWind from/ knotsBaromVisibWave heightAir tempDewpointWater temp
2015-Jul-27 17:28N 26°48' E 051°08'7 0.2
2015-Jul-26 01:33N 26°43' E 051°13'1514.3
2015-Jul-26 00:28N 26°55' E 051°23'1314.6
2015-Jul-25 23:33N 27°06' E 051°33'2015.2
2015-Jul-25 22:14N 27°06' E 051°55'9015.4
2015-Jul-25 16:25N 26°29' E 053°27'1815.5
2015-Jul-25 15:16N 26°27' E 053°46'1415.8
2015-Jul-25 14:24N 26°25' E 054°01'1515.5
2015-Jul-25 13:28N 26°23' E 054°18'15612.9
2015-Jul-25 01:21N 25°36' E 057°04'  
Track history (hours):
 
Tides and Currents Weather Stations Pressure Air Temp Water Temp Dewpoint Dewpoint Depression Visibility Wind Speed Wind Dir Waves Ship Positions

Ncc Najd

Last reported at 2015-Jul-27 17:28 UTC. Time now 2015-Aug-02 04:18 UTC.
Position N 26°48' E 051°08'.

Length 183 m; draft 7.8 m.

Type: Tanker. MMSI: 403579000.

Date/timePositionNaut miles runAvg speedWind from/ knotsBaromVisibWave heightAir tempDewpointWater temp
2015-Jul-27 17:28N 26°48' E 051°08'7 0.2
2015-Jul-26 01:33N 26°43' E 051°13'1514.3
2015-Jul-26 00:28N 26°55' E 051°23'1314.6
2015-Jul-25 23:33N 27°06' E 051°33'2015.2
2015-Jul-25 22:14N 27°06' E 051°55'9015.4
2015-Jul-25 16:25N 26°29' E 053°27'1815.5
2015-Jul-25 15:16N 26°27' E 053°46'1415.8
2015-Jul-25 14:24N 26°25' E 054°01'1515.5
2015-Jul-25 13:28N 26°23' E 054°18'15612.9
2015-Jul-25 01:21N 25°36' E 057°04'  

Dump ship's entire track history